Saturday, December 20, 2014, 8:37 AM EST

KESN, Easton / Newman Field

Location: Easton, MD, United States Lat: 38.8
Local Time: 8:37 AM EST (13:37 GMT) Lon: -76.067
Time Zone: US/Eastern Elev: 72 ft

Show me the last for .
Show Decoded

2014-12-20 07:50 METAR KESN 201250Z 00000KT 10SM SKC M01/M03 A3034 =
2014-12-20 06:50 METAR KESN 201150Z 34003KT 10SM SKC M01/M04 A3031 =
2014-12-20 05:50 METAR KESN 201050Z 00000KT 10SM SKC M01/M03 A3029 =
2014-12-20 05:23 METAR KESN 201028Z AUTO 36004KT 10SM CLR M01/M03 A3028 =
2014-12-20 05:22 METAR KESN 201028Z AUTO 36004KT 10SM CLR M01/M03 A3028 RMK AO2 T10111031 =
2014-12-20 05:09 METAR KESN 201009Z AUTO 00000KT 10SM CLR M01/M03 A3029 =
2014-12-20 05:05 METAR KESN 201009Z AUTO 00000KT 10SM CLR M01/M03 A3029 RMK AO2 T10101031 =
2014-12-20 04:49 METAR KESN 200949Z AUTO 00000KT 10SM CLR M01/M03 A3029 RMK AO2 T10081030 =
2014-12-20 04:24 METAR KESN 200929Z AUTO 00000KT 10SM CLR M01/M03 A3029 =
2014-12-20 04:22 METAR KESN 200929Z AUTO 00000KT 10SM CLR M01/M03 A3029 RMK AO2 T10061029 =
2014-12-20 04:09 METAR KESN 200909Z AUTO 32003KT 10SM CLR M02/M03 A3028 =
2014-12-20 04:06 METAR KESN 200909Z AUTO 32003KT 10SM CLR M02/M03 A3028 RMK AO2 T10181034 =
2014-12-20 03:49 METAR KESN 200849Z AUTO 35003KT 10SM CLR M01/M03 A3029 RMK AO2 T10081030 =
2014-12-20 03:26 METAR KESN 200829Z AUTO 00000KT 10SM CLR M01/M03 A3029 =
2014-12-20 03:23 METAR KESN 200829Z AUTO 00000KT 10SM CLR M01/M03 A3029 RMK AO2 T10061031 =
2014-12-20 03:09 METAR KESN 200809Z AUTO 00000KT 10SM CLR 00/M03 A3029 =
2014-12-20 02:49 METAR KESN 200749Z AUTO 00000KT 10SM CLR 00/M03 A3029 RMK AO2 T10031030 =
2014-12-20 02:29 METAR KESN 200729Z AUTO 00000KT 10SM CLR 00/M03 A3027 =
2014-12-20 02:25 METAR KESN 200729Z AUTO 00000KT 10SM CLR 00/M03 A3027 RMK AO2 T10051032 =
2014-12-20 02:09 METAR KESN 200709Z AUTO 29003KT 10SM CLR 00/M03 A3027 RMK AO2 T00001030 =
2014-12-20 01:49 METAR KESN 200649Z AUTO 35004KT 10SM CLR 00/M03 A3026 RMK AO2 T00001030 =
2014-12-20 01:27 METAR KESN 200629Z AUTO 30003KT 10SM CLR 00/M03 A3026 =
2014-12-20 01:23 METAR KESN 200629Z AUTO 30003KT 10SM CLR 00/M03 A3026 RMK AO2 T10041030 =
2014-12-20 01:09 METAR KESN 200609Z AUTO 35005KT 10SM CLR 00/M03 A3026 RMK AO2 T10051029 =
2014-12-20 00:49 METAR KESN 200549Z AUTO 35005KT 10SM CLR 00/M02 A3026 RMK AO2 T10031025 =
2014-12-20 00:26 METAR KESN 200528Z AUTO 34003KT 10SM CLR 00/M03 =
2014-12-20 00:22 METAR KESN 200528Z AUTO 34003KT 10SM CLR 00/M03 RMK AO2 T10031029 =
2014-12-20 00:08 METAR KESN 200508Z AUTO 33003KT 10SM CLR 00/M02 A3027 RMK AO2 T00001024 =
2014-12-19 23:48 METAR KESN 200448Z AUTO 00000KT 10SM CLR 01/M02 A3028 RMK AO2 T00071024 =
2014-12-19 23:27 METAR KESN 200428Z AUTO 00000KT 10SM CLR 00/M03 A3027 =
2014-12-19 23:24 METAR KESN 200428Z AUTO 00000KT 10SM CLR 00/M03 A3027 RMK AO2 T10021027 =
2014-12-19 23:08 METAR KESN 200408Z AUTO 34005KT 10SM CLR 01/M02 A3026 RMK AO2 T00051024 =
2014-12-19 22:48 METAR KESN 200348Z AUTO 34003KT 10SM CLR 01/M02 A3027 RMK AO2 T00051025 =
2014-12-19 22:27 METAR KESN 200328Z AUTO 34004KT 10SM CLR 01/M02 A3026 =
2014-12-19 22:22 METAR KESN 200328Z AUTO 34004KT 10SM CLR 01/M02 A3026 RMK AO2 T00081025 =
2014-12-19 22:08 METAR KESN 200308Z AUTO 34004KT 10SM CLR 01/M02 A3027 =
2014-12-19 22:07 METAR KESN 200308Z AUTO 34004KT 10SM CLR 01/M02 A3027 RMK AO2 T00111025 =
2014-12-19 21:48 METAR KESN 200248Z AUTO 33006KT 10SM CLR 01/M02 A3026 RMK AO2 T00101025 =
2014-12-19 20:55 METAR KESN 200155Z 32008KT 10SM SKC 01/M03 A3025 =
2014-12-19 18:50 METAR KESN 192350Z 00000KT 10SM SKC 02/M02 A3022 =
2014-12-19 17:50 METAR KESN 192250Z 00000KT 10SM SKC 03/M03 A3021 =
2014-12-19 16:50 METAR KESN 192150Z 31005KT 10SM SCT040 03/M03 A3019 =
2014-12-19 15:50 METAR KESN 192050Z 31010KT 10SM SCT040 04/M03 A3018 =
2014-12-19 14:50 METAR KESN 191950Z 32010G20KT 10SM OVC034 04/M03 A3016 =
2014-12-19 13:58 METAR KESN 191858Z 34010G18KT 10SM OVC034 04/M03 A3014 =
2014-12-19 12:50 METAR KESN 191750Z 32010G16KT 10SM OVC034 04/M02 A3015 =
2014-12-19 11:50 METAR KESN 191650Z 30008G14KT 10SM OVC034 04/M02 A3017 =
2014-12-19 10:50 METAR KESN 191550Z 32009KT 10SM OVC030 03/M02 A3019 =
2014-12-19 09:50 METAR KESN 191450Z 32010G14KT 10SM OVC030 03/M02 A3019 =
2014-12-19 08:50 METAR KESN 191350Z 32010KT 10SM OVC032 03/M02 A3018 =

Support USWX by starting your Amazon purchase here.